Main page
METAR-TAF:

METAR-TAF

Airports :

Bahrain, Bahrain

Bahrain International Airport

latitude: 26-16N, longitude: 050-39E, elevation: 2 m

Current weather observation

The report was made 22 minutes ago, at 04:30 UTC
Wind 9 kt from the Southeast
Temperature 36°C
Humidity 64%
Pressure 1002 hPa
Visibility 10 km or more
no clouds below 1500 m and no cumulonimbus

METAR: OBBI 240430Z 13009KT CAVOK 36/28 Q1002 NOSIG

Time: 07:52 (04:52 UTC)

Forecast

The report was made 5 hours and 52 minutes ago, at 23:00 UTC
Forecast valid from 24 at 00 UTC to 25 at 06 UTC
Wind 10 kt from the East
Visibility: 8000 m
Becoming
from 24 at 21 UTC to 24 at 23 UTC
Wind 5 kt from variable directions

TAF: OBBI 232300Z 2400/2506 10010KT 8000 NSC BECMG 2421/2423 VRB05KT

Weather observations and forecasts of more than 4000 airports (METAR and TAF reports).

The available stations are represented by yellow and red dots on the map.

Hover mouse over dot to see the name of the station.

Then click to see weather observations and forecasts.

To change the map : click on the green buttons with a black cross to zoom in, on the green button with a dash to zoom out, or on the green arrows for adjacent maps.


METAR-TAF: